• Join FlightAware (Why Join?)
  • Login
  • US Flag 
04:27AM EDT


 

Airport Tracker/Info


-or-


 

Live Flight TrackerFlight Track Log ✈ N631TS ✈ 30-Oct-2013 ✈ KISN - KSTC

Flight Track Log - Related Links

Times and Time Zones

All times are in EDT time to prevent confusion due to time zone crossing. See the N631TS flight status page for this flight to view local times or setup timezone preferences in your user account.

Time Position Orientation Groundspeed Altitude Reporting Facility
EDT Latitude Longitude Course Direction KTS MPH feet Rate Location/Type
04:13PM 48.1458 -103.5417 110° East 188 216 5,900  Level Minneapolis Center
04:14PM 48.1233 -103.4378 108° East 202 232 8,600 2,220 Climbing Minneapolis Center
04:15PM 48.1044 -103.3433 107° East 219 252 10,600 1,800 Climbing Minneapolis Center
04:16PM 47.9559 -102.6605 109° East  Level Estimated
04:16PM 48.0828 -103.2433 108° East 234 269 12,500  Level Salt Lake Center
04:17PM 47.9271 -102.5386 109° East  Level FlightAware Approximate
04:17PM 48.0600 -103.1406 108° East 247 284 14,300  Level Salt Lake Center
04:18PM 47.8986 -102.4166 110° East  Level Estimated
04:18PM 48.0350 -103.0322 109° East 260 299 15,600  Level Salt Lake Center
04:19PM 48.0092 -102.9181 109° East 274 315 17,100 1,560 Climbing Salt Lake Center
04:20PM 47.9767 -102.7753 109° East 290 334 18,900 1,560 Climbing Salt Lake Center
04:21PM 47.9486 -102.6536 109° East 300 345 20,300 1,380 Climbing Salt Lake Center
04:22PM 47.9203 -102.5314 109° East 307 353 21,800 1,020 Climbing Salt Lake Center
04:24PM 47.8914 -102.4117 110° East 308 354 22,500 480 Climbing Salt Lake Center
04:25PM 47.8614 -102.2833 109° East 316 364 22,900 240 Climbing Salt Lake Center
04:26PM 47.8331 -102.1547 108° East 325 374 23,000  Climbing Minneapolis Center
04:27PM 47.8017 -102.0194 109° East 334 384 23,000  Level Minneapolis Center
04:28PM 47.7636 -101.8564 109° East 343 395 23,000  Level Minneapolis Center
04:29PM 47.7292 -101.7203 111° Southeast 348 400 23,000  Level Minneapolis Center
04:30PM 47.6961 -101.5839 110° East 351 404 23,000  Level Minneapolis Center
04:31PM 47.6644 -101.4472 109° East 351 404 23,000  Level Minneapolis Center
04:32PM 47.6344 -101.3122 108° East 349 402 23,000  Level Minneapolis Center
04:33PM 47.5922 -101.1497 111° Southeast 350 403 23,000  Level Minneapolis Center
04:34PM 47.5569 -101.0144 111° Southeast 352 405 23,000  Level Minneapolis Center
04:35PM 47.5231 -100.8769 110° East 356 410 23,000  Level Minneapolis Center
04:36PM 47.4914 -100.7444 109° East 350 403 23,000  Level Minneapolis Center
04:37PM 47.4597 -100.6131 110° East 345 397 23,000  Level Minneapolis Center
04:38PM 47.4225 -100.4825 113° Southeast 345 397 23,000  Level Minneapolis Center
04:39PM 47.3833 -100.3269 110° East 340 391 23,000  Level Minneapolis Center
04:40PM 47.3497 -100.1981 111° Southeast 338 389 23,000  Level Minneapolis Center
04:41PM 47.3167 -100.0725 111° Southeast 333 383 23,000 -180 Level Minneapolis Center
04:42PM 47.2847 -99.9517 111° Southeast 324 373 22,700 -720 Descending Minneapolis Center
04:43PM 47.2550 -99.8358 111° Southeast 310 357 21,600 -780 Descending Minneapolis Center
04:44PM 47.2250 -99.7181 111° Southeast 309 356 21,100 -300 Descending Minneapolis Center
04:45PM 47.1894 -99.5825 111° Southeast 301 346 21,000 -60 Descending Minneapolis Center
04:46PM 47.1581 -99.4661 112° Southeast 303 349 21,000  Level Minneapolis Center
04:47PM 47.1264 -99.3486 112° Southeast 308 354 21,000  Level Minneapolis Center
04:48PM 47.0947 -99.2303 111° Southeast 311 358 21,000  Level Minneapolis Center
04:49PM 47.0628 -99.1122 112° Southeast 312 359 21,000  Level Minneapolis Center
04:50PM 47.0247 -98.9725 112° Southeast 311 358 21,000  Level Minneapolis Center
04:51PM 46.9936 -98.8575 112° Southeast 308 354 21,000  Level Minneapolis Center
04:52PM 46.9628 -98.7442 112° Southeast 304 350 21,000  Level Minneapolis Center
04:54PM 46.9311 -98.6292 112° Southeast 305 351 21,000  Level Minneapolis Center
04:55PM 46.8997 -98.5169 112° Southeast 302 348 21,000  Level Minneapolis Center
04:56PM 46.8625 -98.3822 112° Southeast 301 346 21,000  Level Minneapolis Center
04:57PM 46.8319 -98.2686 111° Southeast 301 346 21,000  Level Minneapolis Center
04:58PM 46.8008 -98.1553 112° Southeast 303 349 21,000  Level Minneapolis Center
04:59PM 46.7681 -98.0428 113° Southeast 303 349 21,000  Level Minneapolis Center
05:00PM 46.7364 -97.9294 112° Southeast 303 349 21,000  Level Minneapolis Center
05:01PM 46.7028 -97.8142 113° Southeast 307 353 21,000  Level Minneapolis Center
05:02PM 46.6653 -97.6800 112° Southeast 303 349 21,000  Level Minneapolis Center
05:03PM 46.6311 -97.5681 114° Southeast 299 344 21,000  Level Minneapolis Center
05:04PM 46.6000 -97.4586 112° Southeast 299 344 21,000  Level Minneapolis Center
05:05PM 46.5686 -97.3511 113° Southeast 293 337 21,000  Level Minneapolis Center
05:06PM 46.5378 -97.2456 113° Southeast 286 329 21,000  Level Minneapolis Center
05:07PM 46.5019 -97.1197 112° Southeast 283 326 21,000  Level Minneapolis Center
05:08PM 46.4706 -97.0153 114° Southeast 283 326 21,000  Level Minneapolis Center
05:09PM 46.4389 -96.9092 113° Southeast 286 329 21,000  Level Minneapolis Center
05:10PM 46.4064 -96.8028 114° Southeast 289 333 21,000  Level Minneapolis Center
05:11PM 46.3742 -96.6892 112° Southeast 302 348 21,000  Level Minneapolis Center
05:12PM 46.3389 -96.5739 114° Southeast 311 358 21,000  Level Minneapolis Center
05:13PM 46.2981 -96.4381 113° Southeast 308 354 21,000  Level Minneapolis Center
05:14PM 46.2647 -96.3264 113° Southeast 305 351 21,000  Level Minneapolis Center
05:15PM 46.2442 -96.2058 104° East 308 354 21,000  Level Minneapolis Center
05:16PM 46.1933 -96.1200 131° Southeast 281 323 21,000  Level Minneapolis Center
05:17PM 46.1394 -96.0417 135° Southeast 259 298 21,000  Level Minneapolis Center
05:18PM 46.1122 -95.9447 112° Southeast 261 300 21,000  Level Minneapolis Center
05:19PM 46.0822 -95.8403 112° Southeast 277 319 21,000  Level Minneapolis Center
05:20PM 46.0444 -95.7092 113° Southeast 292 336 21,000  Level Minneapolis Center
05:21PM 46.0117 -95.6000 113° Southeast 296 341 21,000  Level Minneapolis Center
05:23PM 45.9797 -95.4889 112° Southeast 300 345 21,000  Level Minneapolis Center
05:24PM 45.9458 -95.3778 114° Southeast 303 349 21,000  Level Minneapolis Center
05:25PM 45.9133 -95.2664 113° Southeast 303 349 21,000  Level Minneapolis Center
05:26PM 45.8792 -95.1561 114° Southeast 303 349 21,000  Level Minneapolis Center
05:27PM 45.8403 -95.0250 113° Southeast 308 354 21,000 -120 Level Minneapolis Center
05:28PM 45.8078 -94.9117 112° Southeast 310 357 20,800 -1,020 Descending Minneapolis Center
05:29PM 45.7725 -94.7981 114° Southeast 311 358 18,900 -1,740 Descending Minneapolis Center
05:30PM 45.7256 -94.7011 125° Southeast 301 346 17,300 -1,740 Descending Minneapolis Center
05:31PM 45.6722 -94.5972 126° Southeast 278 320 15,400 -1,320 Descending Minneapolis Center
05:32PM 45.6319 -94.5150 125° Southeast 263 303 14,600 -1,200 Descending Minneapolis Center
05:33PM 45.5928 -94.4372 126° Southeast 247 284 12,900 -1,860 Descending Minneapolis Center
05:34PM 45.5519 -94.3544 125° Southeast 250 288 10,800 -1,980 Descending Minneapolis Center
05:35PM 45.5086 -94.2681 126° Southeast 265 305 8,900 -2,040 Descending Minneapolis Center
05:36PM 45.4653 -94.1831 126° Southeast 266 306 6,700 -2,280 Descending Minneapolis Center
05:37PM 45.4158 -94.0822 125° Southeast 257 296 4,300 -1,560 Descending Minneapolis Center
05:38PM 45.3789 -94.0081 125° Southeast 231 266 3,500 -660 Descending Minneapolis Center
05:39PM 45.3600 -93.9419 112° Southeast 191 220 3,000 -300 Descending Minneapolis Center
05:40PM 45.3978 -93.8875 45° Northeast 193 222 3,000  Level Minneapolis Center
05:41PM 45.4483 -93.9089 343° North 190 219 3,100 -60 Climbing Minneapolis Center
05:42PM 45.4758 -93.9639 306° West 170 196 2,900 -480 Descending Minneapolis Center
05:43PM 45.5078 -94.0103 315° West 162 186 2,200 -720 Descending Minneapolis Center